<?xml version="1.0" encoding="utf-8"?>
<gpx xmlns:xsi="http://www.w3.org/2001/XMLSchema-instance" xmlns:xsd="http://www.w3.org/2001/XMLSchema" version="1.1" creator="Shapelink.com" xmlns="http://www.topografix.com/GPX/1/1" xmlns:gpxtpx="http://www.garmin.com/xmlschemas/TrackPointExtension/v1">
  <metadata>
    <name>Crosstrainer 5.70 km, 2016-02-25</name>
    <desc></desc>
    <author><name>Stefan Östlund</name></author> 
    <time>2016-02-25T07:21:09Z</time>
  </metadata>
  <trk>
    <name>Crosstrainer 5.70 km, 2016-02-25</name>
    <trkseg>
      <trkpt lat="59.984647081534" lon="15.827468679832">
        <ele>82</ele>
        <time>2016-02-25T07:21:09Z</time>
      </trkpt>
      <trkpt lat="59.984629982458" lon="15.82742777616">
        <ele>82</ele>
        <time>2016-02-25T07:21:11Z</time>
      </trkpt>
      <trkpt lat="59.984569632778" lon="15.827371030697">
        <ele>82.2</ele>
        <time>2016-02-25T07:21:50Z</time>
      </trkpt>
      <trkpt lat="59.984546414915" lon="15.827327528636">
        <ele>82</ele>
        <time>2016-02-25T07:21:53Z</time>
      </trkpt>
      <trkpt lat="59.984412304515" lon="15.827051093574">
        <ele>81.8</ele>
        <time>2016-02-25T07:22:14Z</time>
      </trkpt>
      <trkpt lat="59.984336699777" lon="15.826996359767">
        <ele>81.6</ele>
        <time>2016-02-25T07:23:45Z</time>
      </trkpt>
      <trkpt lat="59.984314152466" lon="15.826945900729">
        <ele>82.2</ele>
        <time>2016-02-25T07:23:47Z</time>
      </trkpt>
      <trkpt lat="59.984267549102" lon="15.826802151144">
        <ele>81.4</ele>
        <time>2016-02-25T07:24:03Z</time>
      </trkpt>
      <trkpt lat="59.984303926548" lon="15.826901560478">
        <ele>82.2</ele>
        <time>2016-02-25T07:24:06Z</time>
      </trkpt>
      <trkpt lat="59.984403084425" lon="15.827098032214">
        <ele>82.2</ele>
        <time>2016-02-25T07:24:10Z</time>
      </trkpt>
      <trkpt lat="59.984481119914" lon="15.827231555881">
        <ele>82.4</ele>
        <time>2016-02-25T07:24:13Z</time>
      </trkpt>
      <trkpt lat="59.984791669309" lon="15.827871011032">
        <ele>81.2</ele>
        <time>2016-02-25T07:24:35Z</time>
      </trkpt>
      <trkpt lat="59.984825783642" lon="15.827920045147">
        <ele>81.4</ele>
        <time>2016-02-25T07:24:43Z</time>
      </trkpt>
      <trkpt lat="59.984748502524" lon="15.827647633397">
        <ele>81.2</ele>
        <time>2016-02-25T07:25:07Z</time>
      </trkpt>
      <trkpt lat="59.984734756208" lon="15.827612094141">
        <ele>82.2</ele>
        <time>2016-02-25T07:25:12Z</time>
      </trkpt>
      <trkpt lat="59.984692595251" lon="15.827528694236">
        <ele>82</ele>
        <time>2016-02-25T07:25:16Z</time>
      </trkpt>
      <trkpt lat="59.984684800084" lon="15.827520731431">
        <ele>82.2</ele>
        <time>2016-02-25T07:25:18Z</time>
      </trkpt>
      <trkpt lat="59.984597376867" lon="15.827373796724">
        <ele>82.4</ele>
        <time>2016-02-25T07:25:30Z</time>
      </trkpt>
      <trkpt lat="59.984564687457" lon="15.827329121197">
        <ele>82</ele>
        <time>2016-02-25T07:25:32Z</time>
      </trkpt>
      <trkpt lat="59.984481874285" lon="15.827168356355">
        <ele>81.8</ele>
        <time>2016-02-25T07:25:42Z</time>
      </trkpt>
      <trkpt lat="59.984426805202" lon="15.827052853773">
        <ele>81.4</ele>
        <time>2016-02-25T07:25:46Z</time>
      </trkpt>
      <trkpt lat="59.984583546732" lon="15.827372958534">
        <ele>82</ele>
        <time>2016-02-25T07:26:22Z</time>
      </trkpt>
      <trkpt lat="59.984592850641" lon="15.827397182225">
        <ele>82.4</ele>
        <time>2016-02-25T07:26:23Z</time>
      </trkpt>
      <trkpt lat="59.984576757393" lon="15.827403384831">
        <ele>82.4</ele>
        <time>2016-02-25T07:26:26Z</time>
      </trkpt>
      <trkpt lat="59.984583965827" lon="15.827334066518">
        <ele>82</ele>
        <time>2016-02-25T07:26:34Z</time>
      </trkpt>
      <trkpt lat="59.984478437706" lon="15.827186125983">
        <ele>82.2</ele>
        <time>2016-02-25T07:26:44Z</time>
      </trkpt>
      <trkpt lat="59.984343489116" lon="15.826947912385">
        <ele>81.8</ele>
        <time>2016-02-25T07:26:57Z</time>
      </trkpt>
      <trkpt lat="59.984230584923" lon="15.826685726553">
        <ele>82</ele>
        <time>2016-02-25T07:27:09Z</time>
      </trkpt>
      <trkpt lat="59.98423586552" lon="15.826714979384">
        <ele>82</ele>
        <time>2016-02-25T07:27:16Z</time>
      </trkpt>
      <trkpt lat="59.984336867415" lon="15.826842970997">
        <ele>82.4</ele>
        <time>2016-02-25T07:28:30Z</time>
      </trkpt>
      <trkpt lat="59.984629647182" lon="15.827592564314">
        <ele>82.4</ele>
        <time>2016-02-25T07:32:02Z</time>
      </trkpt>
      <trkpt lat="59.984766942704" lon="15.827812086275">
        <ele>81.4</ele>
        <time>2016-02-25T07:33:04Z</time>
      </trkpt>
      <trkpt lat="59.984782616857" lon="15.827796831217">
        <ele>82.4</ele>
        <time>2016-02-25T07:33:09Z</time>
      </trkpt>
      <trkpt lat="59.984788568006" lon="15.827826503143">
        <ele>82.2</ele>
        <time>2016-02-25T07:33:15Z</time>
      </trkpt>
      <trkpt lat="59.984761913564" lon="15.827813259741">
        <ele>81.4</ele>
        <time>2016-02-25T07:33:20Z</time>
      </trkpt>
      <trkpt lat="59.984747580515" lon="15.827759447943">
        <ele>80.8</ele>
        <time>2016-02-25T07:33:31Z</time>
      </trkpt>
    </trkseg>
  </trk>
</gpx>